Аэропорт: Элиста. Элиста

ICAO: URWI

METAR:
2019-07-23 18:30:00
URWI 231830Z AUTO 16002MPS 9999 // ///088/// 21/18 Q1013
METAR:
2019-07-23 14:00:00
TAF AMD URWI 231400Z 2315/2324 12003G08MPS 9999 SCT030CB TEMPO 2315/2318 16007G14MPS 3100 -SHRA SCT011 SCT020CB PROB40 TEMPO 2315/2318 -TSRAGR